sensor_id;sensor_type;location;lat;lon;timestamp;P1;durP1;ratioP1;P2;durP2;ratioP2
78622;SDS011;67943;54.412;9.502;2023-04-24T00:01:08;9.50;;;7.60;;
78622;SDS011;67943;54.412;9.502;2023-04-24T00:06:11;11.85;;;7.70;;
78622;SDS011;67943;54.412;9.502;2023-04-24T00:11:13;11.52;;;8.43;;
78622;SDS011;67943;54.412;9.502;2023-04-24T00:16:14;10.00;;;7.30;;
78622;SDS011;67943;54.412;9.502;2023-04-24T00:21:17;13.10;;;8.18;;
78622;SDS011;67943;54.412;9.502;2023-04-24T00:26:19;10.95;;;7.75;;
78622;SDS011;67943;54.412;9.502;2023-04-24T00:31:20;11.07;;;8.25;;
78622;SDS011;67943;54.412;9.502;2023-04-24T00:36:23;13.25;;;8.80;;
78622;SDS011;67943;54.412;9.502;2023-04-24T00:41:25;12.10;;;8.98;;
78622;SDS011;67943;54.412;9.502;2023-04-24T00:46:26;12.20;;;9.10;;
78622;SDS011;67943;54.412;9.502;2023-04-24T00:51:29;13.30;;;9.63;;
78622;SDS011;67943;54.412;9.502;2023-04-24T00:56:32;11.93;;;9.25;;
78622;SDS011;67943;54.412;9.502;2023-04-24T01:01:34;15.75;;;10.13;;
78622;SDS011;67943;54.412;9.502;2023-04-24T01:06:38;12.35;;;9.23;;
78622;SDS011;67943;54.412;9.502;2023-04-24T01:11:40;13.40;;;10.18;;
78622;SDS011;67943;54.412;9.502;2023-04-24T01:16:42;12.73;;;9.73;;
78622;SDS011;67943;54.412;9.502;2023-04-24T01:21:45;14.43;;;10.10;;
78622;SDS011;67943;54.412;9.502;2023-04-24T01:26:53;14.55;;;11.13;;
78622;SDS011;67943;54.412;9.502;2023-04-24T01:31:55;14.00;;;10.75;;
78622;SDS011;67943;54.412;9.502;2023-04-24T01:36:58;14.77;;;10.35;;
78622;SDS011;67943;54.412;9.502;2023-04-24T01:42:01;14.00;;;9.95;;
78622;SDS011;67943;54.412;9.502;2023-04-24T01:47:03;13.80;;;10.57;;
78622;SDS011;67943;54.412;9.502;2023-04-24T01:52:05;14.82;;;11.43;;
78622;SDS011;67943;54.412;9.502;2023-04-24T01:57:08;14.52;;;11.00;;
78622;SDS011;67943;54.412;9.502;2023-04-24T02:02:09;13.18;;;10.20;;
78622;SDS011;67943;54.412;9.502;2023-04-24T02:07:11;15.32;;;10.40;;
78622;SDS011;67943;54.412;9.502;2023-04-24T02:12:14;14.38;;;10.90;;
78622;SDS011;67943;54.412;9.502;2023-04-24T02:17:15;18.35;;;12.38;;
78622;SDS011;67943;54.412;9.502;2023-04-24T02:22:17;15.55;;;10.93;;
78622;SDS011;67943;54.412;9.502;2023-04-24T02:27:20;13.90;;;10.25;;
78622;SDS011;67943;54.412;9.502;2023-04-24T02:32:22;14.00;;;10.48;;
78622;SDS011;67943;54.412;9.502;2023-04-24T02:37:23;16.20;;;11.35;;
78622;SDS011;67943;54.412;9.502;2023-04-24T02:42:26;16.20;;;11.43;;
78622;SDS011;67943;54.412;9.502;2023-04-24T02:47:28;14.77;;;11.30;;
78622;SDS011;67943;54.412;9.502;2023-04-24T02:52:29;15.57;;;10.75;;
78622;SDS011;67943;54.412;9.502;2023-04-24T02:57:32;13.35;;;9.85;;
78622;SDS011;67943;54.412;9.502;2023-04-24T03:02:34;14.35;;;10.88;;
78622;SDS011;67943;54.412;9.502;2023-04-24T03:07:35;12.68;;;9.75;;
78622;SDS011;67943;54.412;9.502;2023-04-24T03:12:38;13.63;;;10.43;;
78622;SDS011;67943;54.412;9.502;2023-04-24T03:17:40;13.65;;;9.95;;
78622;SDS011;67943;54.412;9.502;2023-04-24T03:22:41;15.07;;;9.95;;
78622;SDS011;67943;54.412;9.502;2023-04-24T03:27:44;12.55;;;9.15;;
78622;SDS011;67943;54.412;9.502;2023-04-24T03:32:46;15.15;;;9.93;;
78622;SDS011;67943;54.412;9.502;2023-04-24T03:37:47;13.50;;;9.45;;
78622;SDS011;67943;54.412;9.502;2023-04-24T03:42:50;11.75;;;9.15;;
78622;SDS011;67943;54.412;9.502;2023-04-24T03:47:52;12.13;;;8.63;;
78622;SDS011;67943;54.412;9.502;2023-04-24T03:52:53;15.27;;;10.25;;
78622;SDS011;67943;54.412;9.502;2023-04-24T03:57:56;11.52;;;9.13;;
78622;SDS011;67943;54.412;9.502;2023-04-24T04:02:58;11.02;;;8.80;;
78622;SDS011;67943;54.412;9.502;2023-04-24T04:08:00;7.38;;;6.38;;
78622;SDS011;67943;54.412;9.502;2023-04-24T04:13:02;7.38;;;5.60;;
78622;SDS011;67943;54.412;9.502;2023-04-24T04:18:04;6.82;;;5.45;;
78622;SDS011;67943;54.412;9.502;2023-04-24T04:23:06;5.95;;;4.93;;
78622;SDS011;67943;54.412;9.502;2023-04-24T04:28:08;7.50;;;4.80;;
78622;SDS011;67943;54.412;9.502;2023-04-24T04:33:10;6.22;;;4.80;;
78622;SDS011;67943;54.412;9.502;2023-04-24T04:38:12;6.20;;;5.30;;
78622;SDS011;67943;54.412;9.502;2023-04-24T04:43:16;6.38;;;5.15;;
78622;SDS011;67943;54.412;9.502;2023-04-24T04:48:18;4.65;;;4.10;;
78622;SDS011;67943;54.412;9.502;2023-04-24T04:53:19;5.50;;;4.60;;
78622;SDS011;67943;54.412;9.502;2023-04-24T04:58:22;4.53;;;3.83;;
78622;SDS011;67943;54.412;9.502;2023-04-24T05:03:24;5.38;;;4.50;;
78622;SDS011;67943;54.412;9.502;2023-04-24T05:08:26;5.40;;;4.53;;
78622;SDS011;67943;54.412;9.502;2023-04-24T05:13:28;6.20;;;4.13;;
78622;SDS011;67943;54.412;9.502;2023-04-24T05:18:30;5.40;;;4.07;;
78622;SDS011;67943;54.412;9.502;2023-04-24T05:23:31;4.97;;;4.40;;
78622;SDS011;67943;54.412;9.502;2023-04-24T05:28:34;5.68;;;4.13;;
78622;SDS011;67943;54.412;9.502;2023-04-24T05:33:36;4.90;;;4.00;;
78622;SDS011;67943;54.412;9.502;2023-04-24T05:38:38;5.03;;;3.90;;
78622;SDS011;67943;54.412;9.502;2023-04-24T05:43:41;5.57;;;4.07;;
78622;SDS011;67943;54.412;9.502;2023-04-24T05:48:42;5.25;;;4.32;;
78622;SDS011;67943;54.412;9.502;2023-04-24T05:53:44;6.32;;;5.20;;
78622;SDS011;67943;54.412;9.502;2023-04-24T05:58:47;5.97;;;5.03;;
78622;SDS011;67943;54.412;9.502;2023-04-24T06:03:48;6.93;;;4.97;;
78622;SDS011;67943;54.412;9.502;2023-04-24T06:08:50;8.30;;;6.05;;
78622;SDS011;67943;54.412;9.502;2023-04-24T06:13:52;8.25;;;6.20;;
78622;SDS011;67943;54.412;9.502;2023-04-24T06:18:54;7.63;;;6.00;;
78622;SDS011;67943;54.412;9.502;2023-04-24T06:23:56;6.63;;;5.13;;
78622;SDS011;67943;54.412;9.502;2023-04-24T06:28:59;10.65;;;5.57;;
78622;SDS011;67943;54.412;9.502;2023-04-24T06:34:01;7.22;;;5.38;;
78622;SDS011;67943;54.412;9.502;2023-04-24T06:39:03;6.47;;;5.22;;
78622;SDS011;67943;54.412;9.502;2023-04-24T06:44:06;7.38;;;5.35;;
78622;SDS011;67943;54.412;9.502;2023-04-24T06:49:08;6.15;;;5.35;;
78622;SDS011;67943;54.412;9.502;2023-04-24T06:54:10;8.15;;;5.13;;
78622;SDS011;67943;54.412;9.502;2023-04-24T06:59:12;6.57;;;5.30;;
78622;SDS011;67943;54.412;9.502;2023-04-24T07:04:14;9.05;;;5.72;;
78622;SDS011;67943;54.412;9.502;2023-04-24T07:09:15;6.72;;;5.00;;
78622;SDS011;67943;54.412;9.502;2023-04-24T07:14:19;7.38;;;5.18;;
78622;SDS011;67943;54.412;9.502;2023-04-24T07:19:21;7.13;;;5.38;;
78622;SDS011;67943;54.412;9.502;2023-04-24T07:24:23;7.15;;;5.68;;
78622;SDS011;67943;54.412;9.502;2023-04-24T07:29:25;8.35;;;5.85;;
78622;SDS011;67943;54.412;9.502;2023-04-24T07:34:27;7.55;;;6.00;;
78622;SDS011;67943;54.412;9.502;2023-04-24T07:39:29;7.70;;;5.97;;
78622;SDS011;67943;54.412;9.502;2023-04-24T07:44:31;7.38;;;5.53;;
78622;SDS011;67943;54.412;9.502;2023-04-24T07:49:33;8.18;;;6.00;;
78622;SDS011;67943;54.412;9.502;2023-04-24T07:54:35;7.40;;;5.72;;
78622;SDS011;67943;54.412;9.502;2023-04-24T07:59:38;8.07;;;6.43;;
78622;SDS011;67943;54.412;9.502;2023-04-24T08:04:40;8.65;;;6.13;;
78622;SDS011;67943;54.412;9.502;2023-04-24T08:09:41;8.07;;;6.35;;
78622;SDS011;67943;54.412;9.502;2023-04-24T08:14:44;9.98;;;6.90;;
78622;SDS011;67943;54.412;9.502;2023-04-24T08:19:46;8.57;;;6.95;;
78622;SDS011;67943;54.412;9.502;2023-04-24T08:24:48;10.45;;;7.50;;
78622;SDS011;67943;54.412;9.502;2023-04-24T08:29:52;10.35;;;7.30;;
78622;SDS011;67943;54.412;9.502;2023-04-24T08:34:54;9.70;;;7.40;;
78622;SDS011;67943;54.412;9.502;2023-04-24T08:39:56;9.15;;;6.80;;
78622;SDS011;67943;54.412;9.502;2023-04-24T08:44:59;8.68;;;7.10;;
78622;SDS011;67943;54.412;9.502;2023-04-24T08:50:01;8.60;;;6.32;;
78622;SDS011;67943;54.412;9.502;2023-04-24T08:55:05;9.50;;;6.47;;
78622;SDS011;67943;54.412;9.502;2023-04-24T09:00:09;8.27;;;5.70;;
78622;SDS011;67943;54.412;9.502;2023-04-24T09:05:11;8.68;;;6.10;;
78622;SDS011;67943;54.412;9.502;2023-04-24T09:10:14;9.40;;;6.07;;
78622;SDS011;67943;54.412;9.502;2023-04-24T09:15:17;6.28;;;5.28;;
78622;SDS011;67943;54.412;9.502;2023-04-24T09:20:20;7.10;;;5.53;;
78622;SDS011;67943;54.412;9.502;2023-04-24T09:25:22;6.93;;;5.70;;
78622;SDS011;67943;54.412;9.502;2023-04-24T09:30:25;7.70;;;5.78;;
78622;SDS011;67943;54.412;9.502;2023-04-24T09:35:26;6.82;;;5.43;;
78622;SDS011;67943;54.412;9.502;2023-04-24T09:40:28;5.95;;;5.10;;
78622;SDS011;67943;54.412;9.502;2023-04-24T09:45:36;8.80;;;6.03;;
78622;SDS011;67943;54.412;9.502;2023-04-24T09:50:38;6.47;;;5.13;;
78622;SDS011;67943;54.412;9.502;2023-04-24T09:55:42;7.07;;;5.57;;
78622;SDS011;67943;54.412;9.502;2023-04-24T10:00:49;7.43;;;5.47;;
78622;SDS011;67943;54.412;9.502;2023-04-24T10:05:54;8.82;;;6.43;;
78622;SDS011;67943;54.412;9.502;2023-04-24T10:10:55;11.35;;;6.55;;
78622;SDS011;67943;54.412;9.502;2023-04-24T10:15:58;8.90;;;6.40;;
78622;SDS011;67943;54.412;9.502;2023-04-24T10:21:01;11.13;;;7.55;;
78622;SDS011;67943;54.412;9.502;2023-04-24T10:26:03;9.80;;;7.03;;
78622;SDS011;67943;54.412;9.502;2023-04-24T10:31:05;13.52;;;7.25;;
78622;SDS011;67943;54.412;9.502;2023-04-24T10:36:07;10.88;;;7.82;;
78622;SDS011;67943;54.412;9.502;2023-04-24T10:41:11;13.38;;;7.22;;
78622;SDS011;67943;54.412;9.502;2023-04-24T10:46:19;12.10;;;8.65;;
78622;SDS011;67943;54.412;9.502;2023-04-24T10:51:21;10.00;;;7.55;;
78622;SDS011;67943;54.412;9.502;2023-04-24T10:56:24;12.55;;;7.25;;
78622;SDS011;67943;54.412;9.502;2023-04-24T11:01:27;8.52;;;6.60;;
78622;SDS011;67943;54.412;9.502;2023-04-24T11:06:30;9.00;;;6.50;;
78622;SDS011;67943;54.412;9.502;2023-04-24T11:11:32;10.25;;;7.80;;
78622;SDS011;67943;54.412;9.502;2023-04-24T11:16:38;14.25;;;10.13;;
78622;SDS011;67943;54.412;9.502;2023-04-24T11:21:43;16.05;;;10.43;;
78622;SDS011;67943;54.412;9.502;2023-04-24T11:26:45;14.27;;;9.90;;
78622;SDS011;67943;54.412;9.502;2023-04-24T11:31:48;16.90;;;10.18;;
78622;SDS011;67943;54.412;9.502;2023-04-24T11:36:51;13.70;;;9.52;;
78622;SDS011;67943;54.412;9.502;2023-04-24T11:41:53;13.32;;;8.43;;
78622;SDS011;67943;54.412;9.502;2023-04-24T11:47:04;12.90;;;8.38;;
78622;SDS011;67943;54.412;9.502;2023-04-24T11:52:05;12.32;;;8.90;;
78622;SDS011;67943;54.412;9.502;2023-04-24T11:57:07;13.57;;;9.90;;
78622;SDS011;67943;54.412;9.502;2023-04-24T12:02:10;16.08;;;10.73;;
78622;SDS011;67943;54.412;9.502;2023-04-24T12:07:21;15.95;;;10.90;;
78622;SDS011;67943;54.412;9.502;2023-04-24T12:12:24;14.30;;;10.00;;
78622;SDS011;67943;54.412;9.502;2023-04-24T12:17:29;12.52;;;8.93;;
78622;SDS011;67943;54.412;9.502;2023-04-24T12:22:44;13.15;;;9.13;;
78622;SDS011;67943;54.412;9.502;2023-04-24T12:27:47;14.60;;;9.60;;
78622;SDS011;67943;54.412;9.502;2023-04-24T12:32:56;14.32;;;9.45;;
78622;SDS011;67943;54.412;9.502;2023-04-24T12:38:05;12.50;;;8.32;;
78622;SDS011;67943;54.412;9.502;2023-04-24T12:43:14;12.43;;;9.13;;
78622;SDS011;67943;54.412;9.502;2023-04-24T12:48:18;15.18;;;9.38;;
78622;SDS011;67943;54.412;9.502;2023-04-24T12:53:20;13.63;;;9.63;;
78622;SDS011;67943;54.412;9.502;2023-04-24T12:58:22;12.63;;;9.02;;
78622;SDS011;67943;54.412;9.502;2023-04-24T13:03:25;13.10;;;9.13;;
78622;SDS011;67943;54.412;9.502;2023-04-24T13:08:26;11.05;;;7.20;;
78622;SDS011;67943;54.412;9.502;2023-04-24T13:13:28;11.88;;;7.45;;
78622;SDS011;67943;54.412;9.502;2023-04-24T13:18:30;10.93;;;7.30;;
78622;SDS011;67943;54.412;9.502;2023-04-24T13:23:32;10.23;;;7.30;;
78622;SDS011;67943;54.412;9.502;2023-04-24T13:28:34;9.43;;;6.50;;
78622;SDS011;67943;54.412;9.502;2023-04-24T13:33:37;7.13;;;4.90;;
78622;SDS011;67943;54.412;9.502;2023-04-24T13:38:39;4.65;;;3.50;;
78622;SDS011;67943;54.412;9.502;2023-04-24T13:43:40;4.10;;;2.45;;
78622;SDS011;67943;54.412;9.502;2023-04-24T13:48:44;3.40;;;2.75;;
78622;SDS011;67943;54.412;9.502;2023-04-24T13:53:45;4.10;;;3.22;;
78622;SDS011;67943;54.412;9.502;2023-04-24T13:58:47;4.30;;;3.45;;
78622;SDS011;67943;54.412;9.502;2023-04-24T14:03:50;5.15;;;3.75;;
78622;SDS011;67943;54.412;9.502;2023-04-24T14:08:52;7.93;;;5.93;;
78622;SDS011;67943;54.412;9.502;2023-04-24T14:13:53;10.73;;;7.35;;
78622;SDS011;67943;54.412;9.502;2023-04-24T14:18:57;12.18;;;8.15;;
78622;SDS011;67943;54.412;9.502;2023-04-24T14:23:59;13.38;;;8.57;;
78622;SDS011;67943;54.412;9.502;2023-04-24T14:29:00;12.38;;;8.25;;
78622;SDS011;67943;54.412;9.502;2023-04-24T14:34:03;15.10;;;9.75;;
78622;SDS011;67943;54.412;9.502;2023-04-24T14:39:04;17.33;;;10.20;;
78622;SDS011;67943;54.412;9.502;2023-04-24T14:44:07;13.95;;;9.50;;
78622;SDS011;67943;54.412;9.502;2023-04-24T14:49:10;21.73;;;12.45;;
78622;SDS011;67943;54.412;9.502;2023-04-24T14:54:12;20.88;;;11.77;;
78622;SDS011;67943;54.412;9.502;2023-04-24T14:59:14;13.57;;;8.93;;
78622;SDS011;67943;54.412;9.502;2023-04-24T15:04:17;13.13;;;8.80;;
78622;SDS011;67943;54.412;9.502;2023-04-24T15:09:23;18.25;;;10.60;;
78622;SDS011;67943;54.412;9.502;2023-04-24T15:14:26;20.40;;;12.30;;
78622;SDS011;67943;54.412;9.502;2023-04-24T15:19:29;23.17;;;16.38;;
78622;SDS011;67943;54.412;9.502;2023-04-24T15:24:30;16.02;;;8.00;;
78622;SDS011;67943;54.412;9.502;2023-04-24T15:29:32;13.40;;;8.15;;
78622;SDS011;67943;54.412;9.502;2023-04-24T15:34:35;10.02;;;6.13;;
78622;SDS011;67943;54.412;9.502;2023-04-24T15:39:36;10.90;;;6.28;;
78622;SDS011;67943;54.412;9.502;2023-04-24T15:44:38;8.63;;;5.78;;
78622;SDS011;67943;54.412;9.502;2023-04-24T15:49:40;11.15;;;6.32;;
78622;SDS011;67943;54.412;9.502;2023-04-24T15:54:42;12.50;;;6.55;;
78622;SDS011;67943;54.412;9.502;2023-04-24T15:59:44;14.82;;;6.63;;
78622;SDS011;67943;54.412;9.502;2023-04-24T16:04:47;13.38;;;7.35;;
78622;SDS011;67943;54.412;9.502;2023-04-24T16:09:49;10.48;;;6.45;;
78622;SDS011;67943;54.412;9.502;2023-04-24T16:14:51;15.13;;;6.97;;
78622;SDS011;67943;54.412;9.502;2023-04-24T16:19:54;13.00;;;7.78;;
78622;SDS011;67943;54.412;9.502;2023-04-24T16:24:55;15.73;;;9.18;;
78622;SDS011;67943;54.412;9.502;2023-04-24T16:29:57;22.65;;;10.40;;
78622;SDS011;67943;54.412;9.502;2023-04-24T16:35:01;21.02;;;11.05;;
78622;SDS011;67943;54.412;9.502;2023-04-24T16:40:02;21.85;;;11.80;;
78622;SDS011;67943;54.412;9.502;2023-04-24T16:45:09;23.60;;;12.20;;
78622;SDS011;67943;54.412;9.502;2023-04-24T16:50:12;23.73;;;12.95;;
78622;SDS011;67943;54.412;9.502;2023-04-24T16:55:14;22.85;;;11.57;;
78622;SDS011;67943;54.412;9.502;2023-04-24T17:00:16;21.30;;;11.23;;
78622;SDS011;67943;54.412;9.502;2023-04-24T17:05:19;21.65;;;12.32;;
78622;SDS011;67943;54.412;9.502;2023-04-24T17:10:22;23.85;;;13.05;;
78622;SDS011;67943;54.412;9.502;2023-04-24T17:15:24;21.45;;;10.68;;
78622;SDS011;67943;54.412;9.502;2023-04-24T17:20:27;20.33;;;9.38;;
78622;SDS011;67943;54.412;9.502;2023-04-24T17:25:28;14.02;;;7.22;;
78622;SDS011;67943;54.412;9.502;2023-04-24T17:30:30;19.92;;;8.85;;
78622;SDS011;67943;54.412;9.502;2023-04-24T17:35:33;16.55;;;8.63;;
78622;SDS011;67943;54.412;9.502;2023-04-24T17:40:34;15.82;;;7.57;;
78622;SDS011;67943;54.412;9.502;2023-04-24T17:45:37;14.43;;;6.70;;
78622;SDS011;67943;54.412;9.502;2023-04-24T17:50:40;14.80;;;6.90;;
78622;SDS011;67943;54.412;9.502;2023-04-24T17:55:42;14.43;;;7.20;;
78622;SDS011;67943;54.412;9.502;2023-04-24T18:00:43;19.35;;;7.15;;
78622;SDS011;67943;54.412;9.502;2023-04-24T18:05:47;14.65;;;7.60;;
78622;SDS011;67943;54.412;9.502;2023-04-24T18:10:48;16.55;;;6.80;;
78622;SDS011;67943;54.412;9.502;2023-04-24T18:15:50;14.30;;;7.78;;
78622;SDS011;67943;54.412;9.502;2023-04-24T18:20:52;19.58;;;9.27;;
78622;SDS011;67943;54.412;9.502;2023-04-24T18:25:54;19.75;;;9.23;;
78622;SDS011;67943;54.412;9.502;2023-04-24T18:30:55;19.90;;;9.85;;
78622;SDS011;67943;54.412;9.502;2023-04-24T18:35:58;28.63;;;9.65;;
78622;SDS011;67943;54.412;9.502;2023-04-24T18:41:00;18.83;;;8.32;;
78622;SDS011;67943;54.412;9.502;2023-04-24T18:46:02;17.95;;;8.90;;
78622;SDS011;67943;54.412;9.502;2023-04-24T18:51:04;25.58;;;10.02;;
78622;SDS011;67943;54.412;9.502;2023-04-24T18:56:06;17.08;;;9.30;;
78622;SDS011;67943;54.412;9.502;2023-04-24T19:01:08;24.27;;;10.38;;
78622;SDS011;67943;54.412;9.502;2023-04-24T19:06:10;19.92;;;9.23;;
78622;SDS011;67943;54.412;9.502;2023-04-24T19:11:12;14.10;;;7.18;;
78622;SDS011;67943;54.412;9.502;2023-04-24T19:16:13;16.30;;;6.40;;
78622;SDS011;67943;54.412;9.502;2023-04-24T19:21:16;11.75;;;4.82;;
78622;SDS011;67943;54.412;9.502;2023-04-24T19:26:17;13.73;;;8.05;;
78622;SDS011;67943;54.412;9.502;2023-04-24T19:31:21;14.00;;;7.10;;
78622;SDS011;67943;54.412;9.502;2023-04-24T19:36:24;7.95;;;4.57;;
78622;SDS011;67943;54.412;9.502;2023-04-24T19:41:26;9.13;;;4.40;;
78622;SDS011;67943;54.412;9.502;2023-04-24T19:46:27;10.90;;;5.85;;
78622;SDS011;67943;54.412;9.502;2023-04-24T19:51:30;12.80;;;6.07;;
78622;SDS011;67943;54.412;9.502;2023-04-24T19:56:32;12.82;;;7.82;;
78622;SDS011;67943;54.412;9.502;2023-04-24T20:01:34;16.30;;;8.32;;
78622;SDS011;67943;54.412;9.502;2023-04-24T20:06:36;17.85;;;9.00;;
78622;SDS011;67943;54.412;9.502;2023-04-24T20:11:38;18.15;;;9.45;;
78622;SDS011;67943;54.412;9.502;2023-04-24T20:16:40;14.32;;;8.95;;
78622;SDS011;67943;54.412;9.502;2023-04-24T20:21:42;15.75;;;8.27;;
78622;SDS011;67943;54.412;9.502;2023-04-24T20:26:44;18.00;;;8.23;;
78622;SDS011;67943;54.412;9.502;2023-04-24T20:31:46;14.80;;;7.38;;
78622;SDS011;67943;54.412;9.502;2023-04-24T20:36:48;12.50;;;6.38;;
78622;SDS011;67943;54.412;9.502;2023-04-24T20:41:50;15.63;;;7.78;;
78622;SDS011;67943;54.412;9.502;2023-04-24T20:46:51;15.95;;;5.55;;
78622;SDS011;67943;54.412;9.502;2023-04-24T20:51:54;18.40;;;6.43;;
78622;SDS011;67943;54.412;9.502;2023-04-24T20:56:58;16.27;;;5.82;;
78622;SDS011;67943;54.412;9.502;2023-04-24T21:02:00;18.40;;;5.90;;
78622;SDS011;67943;54.412;9.502;2023-04-24T21:07:03;15.52;;;5.32;;
78622;SDS011;67943;54.412;9.502;2023-04-24T21:12:05;18.90;;;4.78;;
78622;SDS011;67943;54.412;9.502;2023-04-24T21:17:07;19.55;;;5.40;;
78622;SDS011;67943;54.412;9.502;2023-04-24T21:22:10;19.25;;;5.50;;
78622;SDS011;67943;54.412;9.502;2023-04-24T21:27:11;12.90;;;5.55;;
78622;SDS011;67943;54.412;9.502;2023-04-24T21:32:13;17.48;;;5.15;;
78622;SDS011;67943;54.412;9.502;2023-04-24T21:37:15;17.95;;;5.45;;
78622;SDS011;67943;54.412;9.502;2023-04-24T21:42:17;20.27;;;5.40;;
78622;SDS011;67943;54.412;9.502;2023-04-24T21:47:18;17.75;;;4.70;;
78622;SDS011;67943;54.412;9.502;2023-04-24T21:52:21;19.15;;;5.07;;
78622;SDS011;67943;54.412;9.502;2023-04-24T21:57:22;22.50;;;5.00;;
78622;SDS011;67943;54.412;9.502;2023-04-24T22:02:24;24.80;;;4.20;;
78622;SDS011;67943;54.412;9.502;2023-04-24T22:07:27;21.02;;;4.20;;
78622;SDS011;67943;54.412;9.502;2023-04-24T22:12:30;18.73;;;3.92;;
78622;SDS011;67943;54.412;9.502;2023-04-24T22:17:31;14.82;;;3.25;;
78622;SDS011;67943;54.412;9.502;2023-04-24T22:22:34;13.80;;;3.40;;
78622;SDS011;67943;54.412;9.502;2023-04-24T22:27:36;12.52;;;2.85;;
78622;SDS011;67943;54.412;9.502;2023-04-24T22:32:37;11.73;;;3.38;;
78622;SDS011;67943;54.412;9.502;2023-04-24T22:37:41;14.25;;;3.00;;
78622;SDS011;67943;54.412;9.502;2023-04-24T22:42:42;9.40;;;2.63;;
78622;SDS011;67943;54.412;9.502;2023-04-24T22:47:44;12.65;;;3.00;;
78622;SDS011;67943;54.412;9.502;2023-04-24T22:52:46;12.18;;;3.17;;
78622;SDS011;67943;54.412;9.502;2023-04-24T22:57:48;18.45;;;2.90;;
78622;SDS011;67943;54.412;9.502;2023-04-24T23:02:50;17.40;;;3.47;;
78622;SDS011;67943;54.412;9.502;2023-04-24T23:07:53;11.25;;;3.42;;
78622;SDS011;67943;54.412;9.502;2023-04-24T23:12:55;18.10;;;3.45;;
78622;SDS011;67943;54.412;9.502;2023-04-24T23:17:56;13.10;;;3.03;;
78622;SDS011;67943;54.412;9.502;2023-04-24T23:22:59;11.23;;;2.80;;
78622;SDS011;67943;54.412;9.502;2023-04-24T23:28:00;19.90;;;3.22;;
78622;SDS011;67943;54.412;9.502;2023-04-24T23:33:02;15.55;;;3.20;;
78622;SDS011;67943;54.412;9.502;2023-04-24T23:38:05;18.45;;;3.72;;
78622;SDS011;67943;54.412;9.502;2023-04-24T23:43:06;17.13;;;2.85;;
78622;SDS011;67943;54.412;9.502;2023-04-24T23:48:08;21.67;;;3.72;;
78622;SDS011;67943;54.412;9.502;2023-04-24T23:53:11;20.40;;;3.60;;
78622;SDS011;67943;54.412;9.502;2023-04-24T23:58:12;17.33;;;4.22;;
